Time;durP1;ratioP1;P1;durP2;ratioP2;P2;SDS_P1;SDS_P2;PMS_P1;PMS_P2;Temp;Humidity;BMP_temperature;BMP_pressure;BME280_temperature;BME280_humidity;BME280_pressure;Samples;Min_cycle;Max_cycle;Signal;HPM_P1;HPM_P2
2023/11/29 00:00:07;;;;;;;13.70;8.20;;;2.10;99.90;;;;;;5003686;28;20056;-81
2023/11/29 00:02:33;;;;;;;14.43;9.17;;;2.10;99.90;;;;;;5023942;28;20026;-81
2023/11/29 00:04:59;;;;;;;18.70;11.40;;;2.10;99.90;;;;;;4959971;28;1280056;-81
2023/11/29 00:07:25;;;;;;;17.40;10.40;;;2.20;99.90;;;;;;5024696;28;20456;-82
2023/11/29 00:09:50;;;;;;;15.90;10.27;;;2.20;99.90;;;;;;5024174;28;20057;-80
2023/11/29 00:12:16;;;;;;;14.80;9.33;;;2.20;99.90;;;;;;5005231;28;20080;-81
2023/11/29 00:14:42;;;;;;;16.97;10.73;;;2.20;99.90;;;;;;5006791;28;20026;-81
2023/11/29 00:17:07;;;;;;;14.87;10.67;;;2.20;99.90;;;;;;5022279;28;20507;-82
2023/11/29 00:19:33;;;;;;;16.90;10.80;;;2.20;99.90;;;;;;5024666;28;20101;-81
2023/11/29 02:20:17;;;;;;;10.93;7.43;;;2.50;99.90;;;;;;5045749;22;21347;-81
2023/11/29 02:22:55;;;;;;;10.63;7.43;;;2.50;99.90;;;;;;5039844;22;20056;-83
2023/11/29 02:25:21;;;;;;;12.83;7.50;;;2.50;99.90;;;;;;5030382;28;20129;-83
2023/11/29 02:27:46;;;;;;;10.83;6.77;;;2.60;99.90;;;;;;5029942;28;20046;-75
2023/11/29 02:30:12;;;;;;;10.87;6.33;;;2.50;99.90;;;;;;5032970;28;20029;-76
2023/11/29 02:32:38;;;;;;;12.00;6.50;;;2.50;99.90;;;;;;5033234;28;20102;-76
2023/11/29 02:35:04;;;;;;;9.87;6.20;;;2.50;99.90;;;;;;5084982;22;20060;-76
2023/11/29 02:37:29;;;;;;;9.80;6.93;;;2.50;99.90;;;;;;5093250;28;20028;-76
2023/11/29 02:39:56;;;;;;;12.00;7.13;;;2.60;99.90;;;;;;5093443;28;20085;-76
2023/11/29 02:42:22;;;;;;;10.13;7.00;;;2.50;99.90;;;;;;5093401;28;20024;-75
2023/11/29 02:44:47;;;;;;;9.60;6.43;;;2.60;99.90;;;;;;5093153;28;20024;-76
2023/11/29 02:47:13;;;;;;;9.70;6.33;;;2.50;99.90;;;;;;5092081;28;20056;-76
2023/11/29 02:49:39;;;;;;;10.63;7.10;;;2.60;99.90;;;;;;5090640;28;20020;-76
2023/11/29 02:52:04;;;;;;;11.53;6.73;;;2.50;99.90;;;;;;5081004;28;20103;-76
2023/11/29 02:54:30;;;;;;;9.77;6.17;;;2.60;99.90;;;;;;5084359;28;20021;-76
2023/11/29 02:56:56;;;;;;;10.37;6.83;;;2.50;99.90;;;;;;5086168;28;20384;-76
2023/11/29 02:59:21;;;;;;;10.30;6.77;;;2.60;99.90;;;;;;5086426;28;20024;-76
2023/11/29 03:01:47;;;;;;;10.07;6.77;;;2.60;99.90;;;;;;5102095;28;20052;-76
2023/11/29 03:04:12;;;;;;;12.93;8.20;;;2.60;99.90;;;;;;5075569;28;20521;-76
2023/11/29 03:06:38;;;;;;;12.10;7.90;;;2.60;99.90;;;;;;5074662;28;20020;-76
2023/11/29 03:09:03;;;;;;;11.90;8.20;;;2.60;99.90;;;;;;5081685;28;20063;-76
2023/11/29 03:11:29;;;;;;;11.23;7.93;;;2.60;99.90;;;;;;5071507;28;20036;-76
2023/11/29 03:13:55;;;;;;;16.57;10.30;;;2.60;99.90;;;;;;5084438;28;20383;-76
2023/11/29 03:16:20;;;;;;;15.37;9.80;;;2.60;99.90;;;;;;5084056;28;20063;-75
2023/11/29 03:18:46;;;;;;;15.37;11.63;;;2.60;99.90;;;;;;5073049;28;20434;-75
2023/11/29 03:21:12;;;;;;;15.50;10.37;;;2.60;99.90;;;;;;5084457;28;20031;-76
2023/11/29 03:23:37;;;;;;;14.93;11.80;;;2.60;99.90;;;;;;5082984;28;20029;-76
2023/11/29 03:26:04;;;;;;;15.40;11.20;;;2.60;99.90;;;;;;5074132;28;20083;-76
2023/11/29 03:28:29;;;;;;;17.00;11.10;;;2.60;99.90;;;;;;5082588;28;20032;-76
2023/11/29 03:30:56;;;;;;;16.20;10.40;;;2.60;99.90;;;;;;5083940;28;20031;-75
2023/11/29 03:33:22;;;;;;;16.30;10.47;;;2.60;99.90;;;;;;5089099;28;20062;-76
2023/11/29 03:35:48;;;;;;;14.03;10.27;;;2.60;99.90;;;;;;5098838;28;20499;-76
2023/11/29 03:38:13;;;;;;;14.47;10.07;;;2.60;99.90;;;;;;5104137;28;20021;-75
2023/11/29 03:40:39;;;;;;;18.50;12.40;;;2.70;99.90;;;;;;5100763;28;20073;-76
2023/11/29 03:43:04;;;;;;;17.23;11.50;;;2.70;99.90;;;;;;5102772;28;20495;-76
2023/11/29 03:45:30;;;;;;;17.07;12.43;;;2.70;99.90;;;;;;5111129;28;20024;-76
2023/11/29 03:47:56;;;;;;;15.93;11.57;;;2.70;99.90;;;;;;5092754;28;20059;-76
2023/11/29 03:50:21;;;;;;;16.47;11.63;;;2.70;99.90;;;;;;5104571;28;20048;-76
2023/11/29 03:52:47;;;;;;;18.07;11.77;;;2.80;99.90;;;;;;5105736;28;20045;-76
2023/11/29 03:55:12;;;;;;;20.07;12.97;;;2.70;99.90;;;;;;5100232;28;20020;-76
2023/11/29 03:57:38;;;;;;;18.70;12.67;;;2.70;99.90;;;;;;5104825;28;20028;-76
2023/11/29 04:00:04;;;;;;;17.37;13.00;;;2.70;99.90;;;;;;5097225;28;20055;-76
2023/11/29 04:02:30;;;;;;;19.37;13.93;;;2.60;99.90;;;;;;5104458;27;20020;-76
2023/11/29 04:04:55;;;;;;;21.37;14.10;;;2.60;99.90;;;;;;5106945;28;20027;-76
2023/11/29 04:07:21;;;;;;;19.17;13.90;;;2.60;99.90;;;;;;5105626;28;20107;-76
2023/11/29 04:09:47;;;;;;;20.77;13.87;;;2.60;99.90;;;;;;5078472;28;20020;-76
2023/11/29 04:12:12;;;;;;;20.33;13.43;;;2.50;99.90;;;;;;5089024;28;20020;-76
2023/11/29 04:14:39;;;;;;;20.67;13.77;;;2.50;99.90;;;;;;5107502;28;20023;-75
2023/11/29 04:17:04;;;;;;;17.43;12.77;;;2.60;99.90;;;;;;5096218;28;20097;-75
2023/11/29 04:19:30;;;;;;;23.10;12.67;;;2.50;99.90;;;;;;5101822;28;20024;-76
2023/11/29 04:21:56;;;;;;;20.63;12.93;;;2.50;99.90;;;;;;5106698;28;20028;-78
2023/11/29 04:24:22;;;;;;;19.40;13.50;;;2.50;99.90;;;;;;5102895;28;20031;-75
2023/11/29 04:26:47;;;;;;;15.80;11.37;;;2.50;99.90;;;;;;5104984;28;20039;-76
2023/11/29 04:29:13;;;;;;;18.33;12.10;;;2.50;99.90;;;;;;5114937;28;20059;-75
2023/11/29 04:31:39;;;;;;;17.67;12.57;;;2.50;99.90;;;;;;5106763;28;20035;-76
2023/11/29 04:34:06;;;;;;;15.93;10.87;;;2.50;99.90;;;;;;5103706;28;20026;-76
2023/11/29 04:36:33;;;;;;;15.30;10.90;;;2.50;99.90;;;;;;5103591;28;20090;-75
2023/11/29 04:38:59;;;;;;;15.97;10.80;;;2.50;99.90;;;;;;5109170;28;20474;-77
2023/11/29 04:41:24;;;;;;;15.30;10.13;;;2.60;99.90;;;;;;5101051;28;20032;-76
2023/11/29 04:43:50;;;;;;;17.73;10.70;;;2.60;99.90;;;;;;5095714;28;20069;-76
2023/11/29 04:46:17;;;;;;;15.53;10.07;;;2.60;99.90;;;;;;5087188;28;20471;-75
2023/11/29 04:48:44;;;;;;;17.50;10.43;;;2.60;99.90;;;;;;5102161;28;20063;-75
2023/11/29 04:51:10;;;;;;;16.13;10.03;;;2.60;99.90;;;;;;5108957;27;20044;-78
2023/11/29 04:53:37;;;;;;;21.90;12.37;;;2.70;99.90;;;;;;5098969;28;20104;-77
2023/11/29 04:56:03;;;;;;;18.17;12.00;;;2.70;99.90;;;;;;5108947;28;20024;-77
2023/11/29 04:58:29;;;;;;;15.90;9.97;;;2.70;99.90;;;;;;5090936;28;20107;-77
2023/11/29 05:00:54;;;;;;;15.13;9.57;;;2.70;99.90;;;;;;5084605;28;20111;-77
2023/11/29 05:03:20;;;;;;;14.63;9.50;;;2.70;99.90;;;;;;5105271;28;20028;-77
2023/11/29 05:05:47;;;;;;;14.20;9.63;;;2.70;99.90;;;;;;5106495;28;20028;-78
2023/11/29 05:08:13;;;;;;;14.83;8.80;;;2.70;99.90;;;;;;5104056;28;20371;-75
2023/11/29 05:10:39;;;;;;;22.10;9.23;;;2.70;99.90;;;;;;5105032;28;20027;-78
2023/11/29 05:13:06;;;;;;;15.23;8.60;;;2.70;99.90;;;;;;5096188;28;20020;-77
2023/11/29 05:15:32;;;;;;;15.00;8.87;;;2.70;99.90;;;;;;5096184;28;20383;-74
2023/11/29 05:17:58;;;;;;;17.27;8.23;;;2.70;99.90;;;;;;5099329;27;20020;-78
2023/11/29 05:20:24;;;;;;;15.90;8.40;;;2.80;99.90;;;;;;5105174;28;20028;-75
2023/11/29 05:22:49;;;;;;;15.27;9.43;;;2.80;99.90;;;;;;5104665;28;20028;-76
2023/11/29 05:25:15;;;;;;;15.17;9.90;;;2.80;99.90;;;;;;5095711;28;20378;-75
2023/11/29 05:27:41;;;;;;;18.53;8.30;;;2.80;99.90;;;;;;5102749;28;20028;-75
2023/11/29 05:30:10;;;;;;;13.43;8.27;;;2.80;99.90;;;;;;5105940;28;20028;-75
2023/11/29 05:32:35;;;;;;;15.33;9.00;;;2.80;99.90;;;;;;5105773;28;20035;-75
2023/11/29 05:35:01;;;;;;;14.40;8.53;;;2.80;99.90;;;;;;5104042;28;20032;-75
2023/11/29 05:37:27;;;;;;;16.00;7.93;;;2.80;99.90;;;;;;5103237;28;20024;-75
2023/11/29 05:39:55;;;;;;;13.00;7.00;;;2.90;99.90;;;;;;5105760;28;20032;-77
2023/11/29 05:42:21;;;;;;;14.83;6.97;;;2.90;99.90;;;;;;5104210;27;20375;-78
2023/11/29 05:44:47;;;;;;;13.17;7.30;;;2.90;99.90;;;;;;5093739;28;20028;-77
2023/11/29 05:47:13;;;;;;;14.57;7.50;;;2.90;99.90;;;;;;5096531;28;20491;-78
2023/11/29 05:49:39;;;;;;;13.23;7.23;;;2.90;99.90;;;;;;5105697;28;20015;-78
2023/11/29 05:52:05;;;;;;;13.30;8.10;;;2.90;99.90;;;;;;5089603;28;20410;-78
2023/11/29 05:54:31;;;;;;;17.57;8.13;;;3.00;99.90;;;;;;5103423;28;20390;-77
2023/11/29 05:56:57;;;;;;;13.97;8.20;;;2.90;99.90;;;;;;5092228;28;20480;-78
2023/11/29 05:59:23;;;;;;;17.43;9.37;;;3.00;99.90;;;;;;5099224;28;20597;-78
2023/11/29 06:01:51;;;;;;;17.90;8.90;;;2.90;99.90;;;;;;5102450;28;20028;-78
2023/11/29 06:04:17;;;;;;;13.63;8.47;;;3.00;99.90;;;;;;5104843;28;20072;-78
2023/11/29 06:06:42;;;;;;;18.40;8.63;;;3.00;99.90;;;;;;5105435;28;20024;-78
2023/11/29 06:09:09;;;;;;;15.27;9.20;;;3.00;99.90;;;;;;5104947;27;20097;-76
2023/11/29 06:11:35;;;;;;;12.47;7.97;;;3.00;99.90;;;;;;5106767;28;20034;-77
2023/11/29 06:14:01;;;;;;;14.73;8.17;;;3.00;99.90;;;;;;5092538;28;20024;-77
2023/11/29 06:16:26;;;;;;;14.90;7.73;;;3.00;99.90;;;;;;5101981;28;20100;-78
2023/11/29 06:18:52;;;;;;;14.73;7.87;;;3.00;99.90;;;;;;5093111;28;20016;-77
2023/11/29 06:21:17;;;;;;;11.97;7.10;;;2.90;99.90;;;;;;5106210;28;20510;-77
2023/11/29 06:23:44;;;;;;;14.47;6.80;;;2.90;99.90;;;;;;5080591;28;20027;-77
2023/11/29 06:26:09;;;;;;;10.23;6.20;;;2.90;99.90;;;;;;5099056;28;20020;-78
2023/11/29 06:28:38;;;;;;;11.70;4.97;;;2.90;99.90;;;;;;5093545;28;20027;-77
2023/11/29 06:31:06;;;;;;;8.53;4.17;;;3.00;99.90;;;;;;5106706;28;20047;-78
2023/11/29 06:33:32;;;;;;;8.77;3.63;;;3.00;99.90;;;;;;5103852;28;20061;-78
2023/11/29 06:36:01;;;;;;;6.67;2.80;;;3.00;99.90;;;;;;5104025;28;20127;-76
2023/11/29 06:38:27;;;;;;;4.10;1.80;;;3.00;99.90;;;;;;5105313;28;20085;-77
2023/11/29 06:40:53;;;;;;;4.80;1.63;;;3.10;99.90;;;;;;5086021;28;20475;-78
2023/11/29 06:43:18;;;;;;;3.00;1.03;;;3.10;99.90;;;;;;5101940;28;20027;-77
2023/11/29 06:45:46;;;;;;;2.93;0.80;;;3.10;99.90;;;;;;5102640;28;20023;-78
2023/11/29 06:48:12;;;;;;;4.83;0.70;;;3.20;99.90;;;;;;5097491;28;20024;-78
2023/11/29 06:50:38;;;;;;;2.03;0.47;;;3.20;99.90;;;;;;5074989;28;20388;-77
2023/11/29 06:53:04;;;;;;;6.43;0.50;;;3.20;99.90;;;;;;5086498;28;20046;-77
2023/11/29 06:55:30;;;;;;;3.47;0.40;;;3.30;99.90;;;;;;5093084;28;20036;-77
2023/11/29 06:57:56;;;;;;;1.80;0.50;;;3.30;99.90;;;;;;5092996;28;20024;-77
2023/11/29 07:00:21;;;;;;;2.67;0.67;;;3.30;99.90;;;;;;5104248;28;20441;-77
2023/11/29 07:02:49;;;;;;;2.47;0.53;;;3.30;99.90;;;;;;5093304;28;20021;-77
2023/11/29 07:05:15;;;;;;;4.93;0.67;;;3.30;99.90;;;;;;5093206;28;20020;-77
2023/11/29 07:07:41;;;;;;;4.27;0.67;;;3.30;99.90;;;;;;5094119;28;20024;-78
2023/11/29 07:10:07;;;;;;;4.63;0.70;;;3.30;99.90;;;;;;5090966;28;20016;-77
2023/11/29 07:12:34;;;;;;;5.53;0.77;;;3.30;99.90;;;;;;5103658;28;20681;-77
2023/11/29 07:15:00;;;;;;;4.10;0.70;;;3.20;99.90;;;;;;5097791;28;20027;-77
2023/11/29 07:17:25;;;;;;;2.97;0.70;;;3.20;99.90;;;;;;5100293;28;20374;-78
2023/11/29 07:19:51;;;;;;;3.27;0.60;;;3.20;99.90;;;;;;5086958;28;20027;-78
2023/11/29 07:22:17;;;;;;;3.87;0.50;;;3.20;99.90;;;;;;5106212;28;20387;-77
2023/11/29 07:24:44;;;;;;;5.73;0.80;;;3.20;99.90;;;;;;5101025;28;20468;-78
2023/11/29 07:27:10;;;;;;;5.03;0.80;;;3.30;99.90;;;;;;5092809;28;20204;-78
2023/11/29 07:29:37;;;;;;;6.00;0.80;;;3.30;99.90;;;;;;5096411;28;20027;-78
2023/11/29 07:32:03;;;;;;;4.80;0.97;;;3.40;99.90;;;;;;5110887;28;20024;-78
2023/11/29 07:34:29;;;;;;;5.97;0.90;;;3.40;99.90;;;;;;5106657;27;20056;-78
2023/11/29 07:36:54;;;;;;;2.07;0.60;;;3.40;99.90;;;;;;5105817;28;20107;-78
2023/11/29 07:39:20;;;;;;;3.60;0.67;;;3.50;99.90;;;;;;5106756;28;20068;-78
2023/11/29 07:41:49;;;;;;;3.10;0.60;;;3.50;99.90;;;;;;5108780;27;20050;-78
2023/11/29 07:44:15;;;;;;;1.90;0.63;;;3.60;99.90;;;;;;5107359;28;20023;-78
2023/11/29 07:46:42;;;;;;;4.57;0.70;;;3.60;99.90;;;;;;5105579;28;20028;-78
2023/11/29 07:49:12;;;;;;;1.23;0.43;;;3.60;99.90;;;;;;5087403;28;20027;-78
2023/11/29 07:51:39;;;;;;;3.27;0.60;;;3.60;99.90;;;;;;5110300;28;20024;-78
2023/11/29 07:54:06;;;;;;;4.77;0.60;;;3.50;99.90;;;;;;5096963;28;20056;-78
2023/11/29 07:56:31;;;;;;;4.47;0.77;;;3.50;99.90;;;;;;5109683;28;20016;-78
2023/11/29 07:58:57;;;;;;;5.07;0.83;;;3.40;99.90;;;;;;5107377;28;20493;-78
2023/11/29 08:01:23;;;;;;;6.07;0.60;;;3.40;99.90;;;;;;5098621;28;20069;-78
2023/11/29 08:03:49;;;;;;;3.60;0.70;;;3.40;99.90;;;;;;5114985;28;20028;-77
2023/11/29 08:06:15;;;;;;;4.27;1.03;;;3.40;99.90;;;;;;5097561;28;20080;-78
2023/11/29 08:08:41;;;;;;;2.70;0.50;;;3.40;99.90;;;;;;5116006;28;20020;-78
2023/11/29 08:11:06;;;;;;;5.33;0.83;;;3.30;99.90;;;;;;5098677;28;20024;-77
2023/11/29 08:13:32;;;;;;;3.93;0.83;;;3.30;99.90;;;;;;5112635;28;20031;-77
2023/11/29 08:15:58;;;;;;;5.63;1.00;;;3.30;99.90;;;;;;5113952;28;20469;-77
2023/11/29 08:18:24;;;;;;;4.27;0.93;;;3.40;99.90;;;;;;5109141;28;20024;-77
2023/11/29 08:20:49;;;;;;;5.90;0.80;;;3.40;99.90;;;;;;5094783;28;20035;-78
2023/11/29 08:23:16;;;;;;;7.60;1.40;;;3.50;99.90;;;;;;5096251;28;20065;-78
2023/11/29 08:25:43;;;;;;;7.83;1.90;;;3.60;99.90;;;;;;5107685;28;20023;-78
2023/11/29 08:28:09;;;;;;;5.67;1.53;;;3.60;99.90;;;;;;5095833;28;20024;-78
2023/11/29 08:30:35;;;;;;;6.53;1.20;;;3.70;99.90;;;;;;5094238;28;20043;-78
2023/11/29 08:33:00;;;;;;;5.10;1.80;;;3.80;99.90;;;;;;5095883;28;20025;-77
2023/11/29 08:35:26;;;;;;;10.20;1.87;;;3.80;99.90;;;;;;5095488;28;20089;-78
2023/11/29 08:37:51;;;;;;;10.23;2.07;;;3.90;99.90;;;;;;5095266;28;20024;-78
2023/11/29 08:40:17;;;;;;;7.23;1.90;;;3.80;99.90;;;;;;5077559;28;20471;-78
2023/11/29 08:42:43;;;;;;;5.30;1.53;;;3.90;99.90;;;;;;5077200;28;20110;-78
2023/11/29 08:45:09;;;;;;;9.80;2.07;;;3.80;99.90;;;;;;5095558;28;20085;-78
2023/11/29 08:47:35;;;;;;;7.40;2.03;;;3.80;99.90;;;;;;5106780;28;20075;-78
2023/11/29 08:50:01;;;;;;;5.07;1.70;;;3.80;99.90;;;;;;5112980;28;20092;-78
2023/11/29 08:52:27;;;;;;;5.13;1.80;;;3.80;99.90;;;;;;5115475;28;20028;-78
2023/11/29 08:54:53;;;;;;;9.27;1.73;;;3.70;99.90;;;;;;5097479;28;20385;-78
2023/11/29 08:57:23;;;;;;;9.33;1.90;;;3.70;99.90;;;;;;5097260;28;20390;-78
2023/11/29 08:59:50;;;;;;;6.47;1.80;;;3.70;99.90;;;;;;5120587;27;20114;-78
2023/11/29 09:02:20;;;;;;;7.53;1.90;;;3.60;99.90;;;;;;5095359;28;20035;-78
2023/11/29 09:04:46;;;;;;;11.83;2.30;;;3.50;99.90;;;;;;5113465;28;20016;-77
2023/11/29 09:07:12;;;;;;;5.93;1.87;;;3.50;99.90;;;;;;5115147;28;20054;-78
2023/11/29 09:09:37;;;;;;;4.93;1.93;;;3.50;99.90;;;;;;5115576;28;20020;-78
2023/11/29 09:12:03;;;;;;;6.50;2.10;;;3.50;99.90;;;;;;5113048;28;20074;-78
2023/11/29 09:14:29;;;;;;;8.50;2.10;;;3.50;99.90;;;;;;5102505;28;20428;-79
2023/11/29 09:16:56;;;;;;;8.40;2.20;;;3.60;99.90;;;;;;5095198;28;20020;-79
2023/11/29 09:19:22;;;;;;;5.10;1.93;;;3.70;99.90;;;;;;5094556;28;20527;-79
2023/11/29 09:21:48;;;;;;;3.70;2.03;;;3.80;99.90;;;;;;5094599;28;20028;-79
2023/11/29 09:24:14;;;;;;;4.10;1.83;;;4.00;99.90;;;;;;5076590;28;20114;-79
2023/11/29 09:26:40;;;;;;;5.33;1.90;;;4.20;99.90;;;;;;5093412;28;20046;-79
2023/11/29 09:29:06;;;;;;;5.83;1.47;;;4.50;99.90;;;;;;5093605;28;20503;-79
2023/11/29 09:31:31;;;;;;;6.17;1.80;;;5.00;99.90;;;;;;5094337;28;20030;-79
2023/11/29 09:33:57;;;;;;;5.60;1.60;;;5.40;99.90;;;;;;5099526;27;20011;-79
2023/11/29 09:36:23;;;;;;;3.90;1.20;;;5.90;99.90;;;;;;5098872;28;20023;-79
2023/11/29 09:38:50;;;;;;;5.13;1.33;;;6.60;99.90;;;;;;5094884;28;20031;-79
2023/11/29 09:41:16;;;;;;;5.03;1.23;;;7.20;99.90;;;;;;5094395;28;20510;-79
2023/11/29 09:43:43;;;;;;;2.63;0.73;;;7.90;99.90;;;;;;5078290;28;20031;-79
2023/11/29 09:46:09;;;;;;;6.13;1.00;;;8.50;99.90;;;;;;5103542;28;20020;-78
2023/11/29 09:48:35;;;;;;;3.38;0.77;;;9.10;99.90;;;;;;5076057;28;20032;-79
2023/11/29 09:51:01;;;;;;;3.60;0.90;;;9.60;99.90;;;;;;5093926;28;20039;-78
2023/11/29 09:53:27;;;;;;;4.45;0.80;;;10.20;99.90;;;;;;5075129;28;20555;-79
2023/11/29 09:55:55;;;;;;;2.85;0.80;;;10.70;99.90;;;;;;5075984;28;20016;-77
2023/11/29 09:58:22;;;;;;;4.88;0.88;;;11.00;99.90;;;;;;5076100;28;20113;-79
2023/11/29 10:00:47;;;;;;;2.33;0.80;;;11.20;99.90;;;;;;5076015;28;20020;-80
2023/11/29 10:03:14;;;;;;;4.55;0.80;;;11.40;99.90;;;;;;5093781;28;20021;-77
2023/11/29 10:05:45;;;;;;;3.60;0.63;;;11.60;99.90;;;;;;5075684;28;20099;-79
2023/11/29 10:08:13;;;;;;;2.25;0.60;;;12.00;99.90;;;;;;5094135;28;20024;-78
2023/11/29 10:10:39;;;;;;;3.75;0.77;;;12.10;99.90;;;;;;5075349;28;20035;-78
2023/11/29 10:13:04;;;;;;;5.65;1.02;;;12.00;98.00;;;;;;5075562;28;20047;-78
2023/11/29 10:15:30;;;;;;;4.55;0.88;;;11.70;94.40;;;;;;5093709;28;20487;-79
2023/11/29 10:17:56;;;;;;;4.90;0.93;;;11.40;94.00;;;;;;5093362;28;20024;-79
2023/11/29 10:20:26;;;;;;;3.30;1.00;;;11.30;94.60;;;;;;5094116;28;20024;-79
2023/11/29 10:22:52;;;;;;;6.07;1.15;;;11.10;92.20;;;;;;5093870;28;20078;-79
2023/11/29 10:25:20;;;;;;;5.13;1.00;;;10.90;92.30;;;;;;5093566;28;20483;-79
2023/11/29 10:27:46;;;;;;;6.05;1.08;;;10.70;89.80;;;;;;5093815;28;20016;-79
2023/11/29 10:30:13;;;;;;;3.38;0.93;;;10.40;89.70;;;;;;5093348;28;20499;-79
2023/11/29 10:32:40;;;;;;;2.40;0.80;;;10.10;89.50;;;;;;5092003;28;20054;-79
2023/11/29 10:35:10;;;;;;;3.92;0.90;;;9.90;87.00;;;;;;5104627;28;20028;-78
2023/11/29 10:37:47;;;;;;;5.50;0.90;;;9.80;87.30;;;;;;5102559;28;20020;-79
2023/11/29 10:40:17;;;;;;;5.43;1.20;;;9.80;88.20;;;;;;5118809;27;20110;-79
2023/11/29 10:42:45;;;;;;;2.40;0.70;;;9.70;87.10;;;;;;5101114;27;20093;-79
2023/11/29 10:45:19;;;;;;;3.73;1.00;;;9.70;84.40;;;;;;5119026;27;20072;-79
2023/11/29 10:47:56;;;;;;;4.93;1.43;;;9.50;82.70;;;;;;5113992;27;20028;-79
2023/11/29 10:50:23;;;;;;;5.37;1.17;;;9.20;82.60;;;;;;5091612;28;20022;-78
2023/11/29 10:52:49;;;;;;;2.73;0.87;;;9.00;82.80;;;;;;5109656;28;20027;-78
2023/11/29 10:55:16;;;;;;;8.07;1.30;;;8.80;82.90;;;;;;5112722;28;20105;-79
2023/11/29 10:58:04;;;;;;;5.20;1.00;;;8.70;83.20;;;;;;5108130;28;20115;-78
2023/11/29 11:00:30;;;;;;;3.30;0.73;;;8.50;83.00;;;;;;5091440;28;20103;-79
2023/11/29 11:02:56;;;;;;;8.10;1.13;;;8.40;82.30;;;;;;5119403;28;20542;-78
2023/11/29 11:05:23;;;;;;;2.73;0.60;;;8.30;82.40;;;;;;5123450;27;20091;-78
2023/11/29 11:07:49;;;;;;;4.17;0.90;;;8.30;83.40;;;;;;5102469;27;20559;-78
2023/11/29 11:10:26;;;;;;;4.23;1.07;;;8.50;83.90;;;;;;5103047;28;20016;-78
2023/11/29 11:12:55;;;;;;;5.73;0.70;;;8.70;84.20;;;;;;5122104;27;20027;-79
2023/11/29 11:15:25;;;;;;;2.50;0.67;;;8.80;84.40;;;;;;5120845;27;20026;-76
2023/11/29 11:18:03;;;;;;;4.63;0.93;;;9.00;85.20;;;;;;5107815;27;20035;-78
2023/11/29 11:20:43;;;;;;;4.83;0.80;;;9.30;85.90;;;;;;5125065;27;20019;-77
2023/11/29 11:23:16;;;;;;;3.20;0.85;;;9.50;85.50;;;;;;5119833;27;20068;-77
2023/11/29 11:25:42;;;;;;;4.80;0.70;;;9.70;85.10;;;;;;5098977;28;20023;-77
2023/11/29 11:28:27;;;;;;;3.90;0.68;;;9.90;85.00;;;;;;5096702;28;20100;-77
2023/11/29 11:30:53;;;;;;;6.38;0.60;;;10.10;84.30;;;;;;5096586;28;20028;-78
2023/11/29 11:33:19;;;;;;;2.15;0.63;;;10.20;83.60;;;;;;5096805;28;20413;-78
2023/11/29 11:35:45;;;;;;;2.65;0.75;;;10.20;82.80;;;;;;5095309;28;20036;-78
2023/11/29 11:38:11;;;;;;;3.28;0.73;;;10.10;81.60;;;;;;5096937;28;20028;-78
2023/11/29 11:40:39;;;;;;;2.28;0.70;;;9.90;80.30;;;;;;5096251;28;20142;-78
2023/11/29 11:43:05;;;;;;;4.90;0.90;;;9.70;80.30;;;;;;5096635;28;20024;-77
2023/11/29 11:45:34;;;;;;;3.20;0.80;;;9.60;79.80;;;;;;5106165;28;20020;-78
2023/11/29 11:48:01;;;;;;;3.90;0.70;;;9.50;80.00;;;;;;5105627;28;20509;-78
2023/11/29 11:50:27;;;;;;;4.13;1.43;;;9.40;80.70;;;;;;5100390;28;20064;-78
2023/11/29 11:52:53;;;;;;;3.07;1.00;;;9.30;80.30;;;;;;5107838;27;20552;-78
2023/11/29 11:55:19;;;;;;;3.20;0.93;;;9.20;79.60;;;;;;5096462;28;20402;-78
2023/11/29 11:57:47;;;;;;;5.60;1.07;;;8.90;79.70;;;;;;5096714;28;20023;-78
2023/11/29 12:00:13;;;;;;;3.83;1.37;;;8.80;79.90;;;;;;5115603;28;20059;-78
2023/11/29 12:02:40;;;;;;;3.67;1.43;;;8.60;79.80;;;;;;5114485;28;20489;-78
2023/11/29 12:05:07;;;;;;;3.67;1.03;;;8.40;79.80;;;;;;5114263;28;20437;-78
2023/11/29 12:07:43;;;;;;;4.50;1.10;;;8.30;80.10;;;;;;5084178;28;20020;-78
2023/11/29 12:10:10;;;;;;;2.67;0.90;;;8.00;79.80;;;;;;5115928;28;20024;-78
2023/11/29 12:12:36;;;;;;;7.60;1.90;;;7.80;80.40;;;;;;5109194;27;20035;-78
2023/11/29 12:15:02;;;;;;;6.13;1.43;;;7.70;80.80;;;;;;5097783;28;20391;-78
2023/11/29 12:17:35;;;;;;;4.73;1.27;;;7.60;81.10;;;;;;5115736;28;20024;-78
2023/11/29 12:20:04;;;;;;;2.97;1.00;;;7.50;81.40;;;;;;5109670;28;20019;-78
2023/11/29 12:22:31;;;;;;;7.03;1.70;;;7.30;81.50;;;;;;5090144;28;20134;-78
2023/11/29 12:24:57;;;;;;;4.70;1.30;;;7.20;82.00;;;;;;5113627;28;20471;-78
2023/11/29 12:27:26;;;;;;;5.27;1.30;;;7.20;82.50;;;;;;5115913;28;20489;-78
2023/11/29 12:30:00;;;;;;;4.93;1.47;;;7.20;82.80;;;;;;5113204;27;20027;-77
2023/11/29 12:32:30;;;;;;;7.17;1.60;;;7.10;82.80;;;;;;5108687;28;20099;-78
2023/11/29 12:34:57;;;;;;;4.80;1.67;;;7.10;83.00;;;;;;5115241;28;20111;-83
2023/11/29 12:37:25;;;;;;;5.10;1.10;;;7.00;83.10;;;;;;5102731;27;20107;-78
2023/11/29 12:39:52;;;;;;;4.03;1.30;;;7.00;83.70;;;;;;5109286;28;20074;-77
2023/11/29 12:42:18;;;;;;;5.03;1.23;;;7.00;84.20;;;;;;5097351;28;20011;-77
2023/11/29 12:44:43;;;;;;;5.67;1.20;;;6.90;84.20;;;;;;5097144;28;20068;-79
2023/11/29 12:47:09;;;;;;;5.20;1.30;;;6.80;84.30;;;;;;5115900;28;20072;-77
2023/11/29 12:49:34;;;;;;;7.20;1.87;;;6.80;84.50;;;;;;5115762;28;20020;-77
2023/11/29 12:52:00;;;;;;;5.40;1.90;;;6.80;85.00;;;;;;5115428;28;20027;-79
2023/11/29 12:54:26;;;;;;;7.87;1.40;;;6.70;85.20;;;;;;5114104;28;20018;-77
2023/11/29 12:56:52;;;;;;;5.43;1.40;;;6.60;85.30;;;;;;5115283;28;20467;-78
2023/11/29 12:59:19;;;;;;;6.83;1.23;;;6.60;85.50;;;;;;5114999;28;20027;-78
2023/11/29 13:01:44;;;;;;;3.90;1.17;;;6.50;85.60;;;;;;5115362;28;20024;-77
2023/11/29 13:04:11;;;;;;;7.60;1.50;;;6.50;86.10;;;;;;5115261;28;20540;-79
2023/11/29 13:06:37;;;;;;;5.90;1.53;;;6.40;86.70;;;;;;5100995;28;20020;-77
2023/11/29 13:09:03;;;;;;;4.97;1.40;;;6.30;86.60;;;;;;5111926;28;20058;-77
2023/11/29 13:11:28;;;;;;;4.10;1.20;;;6.10;86.80;;;;;;5115193;28;20418;-77
2023/11/29 13:13:54;;;;;;;8.23;1.80;;;6.10;87.30;;;;;;5113740;28;20016;-78
2023/11/29 13:16:20;;;;;;;5.10;1.10;;;6.00;87.60;;;;;;5115125;28;20128;-78
2023/11/29 13:18:47;;;;;;;5.13;0.93;;;5.90;87.50;;;;;;5115066;28;20042;-78
2023/11/29 13:21:13;;;;;;;3.53;1.00;;;5.90;87.60;;;;;;5096498;28;20498;-78
2023/11/29 13:23:38;;;;;;;4.80;1.30;;;5.80;87.80;;;;;;5113532;28;20020;-78
2023/11/29 13:26:04;;;;;;;8.27;1.53;;;5.90;88.60;;;;;;5115254;28;20499;-78
2023/11/29 13:28:30;;;;;;;4.83;1.40;;;5.80;89.00;;;;;;5095226;28;20027;-78
2023/11/29 13:30:56;;;;;;;7.23;1.30;;;5.90;89.10;;;;;;5114392;28;20395;-78
2023/11/29 13:33:22;;;;;;;6.33;1.43;;;6.00;89.40;;;;;;5114673;28;20023;-77
2023/11/29 13:35:48;;;;;;;5.33;1.43;;;6.10;89.40;;;;;;5109743;28;20127;-77
2023/11/29 13:38:15;;;;;;;7.03;2.00;;;6.20;89.00;;;;;;5086174;28;20020;-77
2023/11/29 13:40:41;;;;;;;5.40;1.30;;;6.10;88.80;;;;;;5091065;28;20490;-78
2023/11/29 13:43:07;;;;;;;4.30;1.43;;;6.10;88.90;;;;;;5107474;28;20096;-78
2023/11/29 13:45:33;;;;;;;10.40;2.00;;;6.20;89.50;;;;;;5112254;28;20474;-78
2023/11/29 13:47:59;;;;;;;3.93;1.20;;;6.20;89.40;;;;;;5093212;28;20012;-78
2023/11/29 13:50:25;;;;;;;3.57;1.20;;;6.20;89.60;;;;;;5088955;28;20034;-79
2023/11/29 13:52:52;;;;;;;4.93;1.70;;;6.50;90.20;;;;;;5112403;28;20072;-78
2023/11/29 13:55:18;;;;;;;2.43;0.90;;;6.60;89.60;;;;;;5112795;28;20427;-78
2023/11/29 13:57:43;;;;;;;3.43;1.17;;;6.80;89.60;;;;;;5114035;28;20149;-79
2023/11/29 14:00:09;;;;;;;4.87;0.90;;;7.10;90.30;;;;;;5113964;28;20103;-78
2023/11/29 14:02:35;;;;;;;4.50;0.97;;;7.40;89.30;;;;;;5113769;28;20019;-78
2023/11/29 14:05:01;;;;;;;3.20;0.80;;;7.40;87.70;;;;;;5114278;28;20028;-78
2023/11/29 14:07:26;;;;;;;5.60;1.00;;;7.30;86.20;;;;;;5095642;28;20023;-78
2023/11/29 14:09:52;;;;;;;3.13;0.57;;;7.20;85.80;;;;;;5113921;28;20028;-80
2023/11/29 14:12:21;;;;;;;2.00;0.80;;;7.00;85.70;;;;;;5113730;28;20030;-79
2023/11/29 14:14:47;;;;;;;4.90;0.90;;;6.90;85.10;;;;;;5114105;28;20031;-76
2023/11/29 14:17:13;;;;;;;3.57;0.70;;;6.80;85.50;;;;;;5108977;28;20375;-79
2023/11/29 14:19:39;;;;;;;1.73;0.70;;;6.60;85.30;;;;;;5113764;28;20023;-81
2023/11/29 14:22:06;;;;;;;3.60;1.00;;;6.50;85.20;;;;;;5089997;28;20532;-79
2023/11/29 14:24:32;;;;;;;3.20;0.90;;;6.40;85.30;;;;;;5095287;28;20020;-78
2023/11/29 14:26:58;;;;;;;3.20;0.60;;;6.20;85.40;;;;;;5106581;27;20034;-79
2023/11/29 14:29:24;;;;;;;3.47;0.70;;;6.10;85.80;;;;;;5087411;28;20012;-79
2023/11/29 14:31:51;;;;;;;2.83;0.80;;;5.90;86.10;;;;;;5103388;28;20035;-78
2023/11/29 14:34:17;;;;;;;3.20;0.90;;;5.80;86.50;;;;;;5102816;27;20525;-78
2023/11/29 14:36:44;;;;;;;3.90;0.80;;;5.70;86.70;;;;;;5086196;28;20047;-79
2023/11/29 14:39:16;;;;;;;7.93;1.00;;;5.60;86.90;;;;;;5106919;28;20483;-78
2023/11/29 14:46:52;;;;;;;3.00;1.20;;;5.20;88.00;;;;;;4681546;22;20441;-78
2023/11/29 14:49:17;;;;;;;2.73;1.13;;;5.00;88.00;;;;;;5054084;28;20108;-80